createdAt,value
2018-11-27T00:00:31.740Z,10.69
2018-11-27T00:01:32.206Z,10.70
2018-11-27T00:02:32.674Z,10.70
2018-11-27T00:03:33.148Z,10.69
2018-11-27T00:04:33.611Z,10.68
2018-11-27T00:05:34.079Z,10.68
2018-11-27T00:06:34.549Z,10.70
2018-11-27T00:07:35.014Z,10.66
2018-11-27T00:08:35.482Z,10.66
2018-11-27T00:09:35.949Z,10.64
2018-11-27T00:10:36.416Z,10.63
2018-11-27T00:11:36.888Z,10.64
2018-11-27T00:12:37.356Z,10.67
2018-11-27T00:13:37.821Z,10.66
2018-11-27T00:14:38.290Z,10.65
2018-11-27T00:15:38.760Z,10.62
2018-11-27T00:16:39.228Z,10.61
2018-11-27T00:17:39.693Z,10.59
2018-11-27T00:18:40.163Z,10.62
2018-11-27T00:19:40.631Z,10.61
2018-11-27T00:20:41.098Z,10.60
2018-11-27T00:21:41.568Z,10.59
2018-11-27T00:22:42.032Z,10.59
2018-11-27T00:23:42.501Z,10.57
2018-11-27T00:24:42.969Z,10.60
2018-11-27T00:25:43.440Z,10.59
2018-11-27T00:26:43.907Z,10.61
2018-11-27T00:27:44.373Z,10.60
2018-11-27T00:28:44.845Z,10.61
2018-11-27T00:29:45.310Z,10.59
2018-11-27T00:30:45.776Z,10.61
2018-11-27T00:31:46.301Z,10.58
2018-11-27T00:32:46.714Z,10.60
2018-11-27T00:33:47.193Z,10.57
2018-11-27T00:34:47.649Z,10.55
2018-11-27T00:35:48.118Z,10.53
2018-11-27T00:36:48.645Z,10.51
2018-11-27T00:37:49.058Z,10.49
2018-11-27T00:38:49.522Z,10.52
2018-11-27T00:39:49.989Z,10.50
2018-11-27T00:40:50.467Z,10.55
2018-11-27T00:41:50.924Z,10.52
2018-11-27T00:42:51.391Z,10.48
2018-11-27T00:43:51.860Z,10.51
2018-11-27T00:44:52.380Z,10.52
2018-11-27T00:45:52.795Z,10.49
2018-11-27T00:46:53.265Z,10.49
2018-11-27T00:47:53.731Z,10.50
2018-11-27T00:48:54.203Z,10.49
2018-11-27T00:49:54.666Z,10.49
2018-11-27T00:50:55.135Z,10.49
2018-11-27T00:51:55.602Z,10.50
2018-11-27T00:52:56.070Z,10.47
2018-11-27T00:53:56.538Z,10.46
2018-11-27T00:54:58.762Z,10.47
2018-11-27T00:55:57.473Z,10.46
2018-11-27T00:56:57.942Z,10.47
2018-11-27T00:57:58.408Z,10.44
2018-11-27T00:58:58.879Z,10.44
2018-11-27T00:59:59.345Z,10.43
2018-11-27T01:00:59.813Z,10.42
2018-11-27T01:02:00.280Z,10.43
2018-11-27T01:03:00.747Z,10.43
2018-11-27T01:04:01.215Z,10.41
2018-11-27T01:05:01.682Z,10.40
2018-11-27T01:06:02.150Z,10.36
2018-11-27T01:07:02.620Z,10.38
2018-11-27T01:08:03.088Z,10.35
2018-11-27T01:09:03.553Z,10.37
2018-11-27T01:10:04.021Z,10.34
2018-11-27T01:11:04.490Z,10.32
2018-11-27T01:12:04.959Z,10.31
2018-11-27T01:13:05.426Z,10.30
2018-11-27T01:14:05.895Z,10.31
2018-11-27T01:15:06.362Z,10.30
2018-11-27T01:16:06.831Z,10.27
2018-11-27T01:17:07.296Z,10.29
2018-11-27T01:18:07.766Z,10.29
2018-11-27T01:19:08.232Z,10.27
2018-11-27T01:20:08.701Z,10.31
2018-11-27T01:21:09.167Z,10.28
2018-11-27T01:22:09.637Z,10.28
2018-11-27T01:23:10.102Z,10.27
2018-11-27T01:24:10.571Z,10.26
2018-11-27T01:25:11.038Z,10.26
2018-11-27T01:26:11.504Z,10.22
2018-11-27T01:27:11.972Z,10.22
2018-11-27T01:28:12.440Z,10.21
2018-11-27T01:29:12.908Z,10.19
2018-11-27T01:30:13.373Z,10.16
2018-11-27T01:31:13.842Z,10.19
2018-11-27T01:32:14.311Z,10.17
2018-11-27T01:33:14.778Z,10.15
2018-11-27T01:34:15.244Z,10.11
2018-11-27T01:35:15.715Z,10.09
2018-11-27T01:36:16.179Z,10.07
2018-11-27T01:37:16.652Z,10.10
2018-11-27T01:38:17.113Z,10.08
2018-11-27T01:39:17.584Z,10.07
2018-11-27T01:40:18.050Z,10.10
2018-11-27T01:41:18.518Z,10.10
2018-11-27T01:42:18.983Z,10.08
2018-11-27T01:43:19.452Z,10.10
2018-11-27T01:44:19.918Z,10.08
2018-11-27T01:45:20.388Z,10.09
2018-11-27T01:46:20.853Z,10.09
2018-11-27T01:47:21.322Z,10.05
2018-11-27T01:48:21.789Z,10.03
2018-11-27T01:49:22.257Z,10.05
2018-11-27T01:50:22.724Z,10.04
2018-11-27T01:51:23.193Z,10.03
2018-11-27T01:52:23.659Z,10.02
2018-11-27T01:53:24.127Z,10.03
2018-11-27T01:54:24.592Z,10.00
2018-11-27T01:55:25.062Z,10.02
2018-11-27T01:56:25.533Z,9.99
2018-11-27T01:57:25.995Z,9.99
2018-11-27T01:58:26.462Z,9.99
2018-11-27T01:59:26.930Z,9.97
2018-11-27T02:00:27.398Z,9.96
2018-11-27T02:01:27.864Z,9.94
2018-11-27T02:02:28.332Z,9.94
2018-11-27T02:03:28.798Z,9.94
2018-11-27T02:04:29.265Z,9.94
2018-11-27T02:05:29.732Z,9.91
2018-11-27T02:06:30.200Z,9.91
2018-11-27T02:07:30.666Z,9.89
2018-11-27T02:08:31.136Z,9.89
2018-11-27T02:09:31.603Z,9.89
2018-11-27T02:10:32.068Z,9.87
2018-11-27T02:11:32.534Z,9.89
2018-11-27T02:12:33.003Z,9.87
2018-11-27T02:13:33.473Z,9.84
2018-11-27T02:14:33.938Z,9.84
2018-11-27T02:15:34.406Z,9.84
2018-11-27T02:16:34.872Z,9.87
2018-11-27T02:17:35.342Z,9.89
2018-11-27T02:18:35.806Z,9.87
2018-11-27T02:19:36.272Z,9.82
2018-11-27T02:20:36.740Z,9.85
2018-11-27T02:21:37.211Z,9.85
2018-11-27T02:22:37.674Z,9.86
2018-11-27T02:23:38.148Z,9.86
2018-11-27T02:24:38.612Z,9.88
2018-11-27T02:25:39.078Z,9.85
2018-11-27T02:26:39.544Z,9.83
2018-11-27T02:27:40.013Z,9.82
2018-11-27T02:28:40.476Z,9.82
2018-11-27T02:29:40.946Z,9.84
2018-11-27T02:30:41.414Z,9.81
2018-11-27T02:31:41.885Z,9.84
2018-11-27T02:32:42.345Z,9.84
2018-11-27T02:33:42.816Z,9.81
2018-11-27T02:34:43.282Z,9.82
2018-11-27T02:35:43.748Z,9.81
2018-11-27T02:36:44.216Z,9.82
2018-11-27T02:37:44.685Z,9.81
2018-11-27T02:38:45.155Z,9.81
2018-11-27T02:39:45.620Z,9.76
2018-11-27T02:40:46.085Z,9.79
2018-11-27T02:41:46.552Z,9.80
2018-11-27T02:42:47.026Z,9.76
2018-11-27T02:43:47.485Z,9.79
2018-11-27T02:44:47.952Z,9.76
2018-11-27T02:45:48.418Z,9.75
2018-11-27T02:46:48.885Z,9.78
2018-11-27T02:47:49.361Z,9.78
2018-11-27T02:48:49.821Z,9.75
2018-11-27T02:49:50.288Z,9.76
2018-11-27T02:50:50.752Z,9.74
2018-11-27T02:51:51.220Z,9.74
2018-11-27T02:52:51.689Z,9.74
2018-11-27T02:53:52.157Z,9.76
2018-11-27T02:54:52.623Z,9.76
2018-11-27T02:55:53.089Z,9.73
2018-11-27T02:56:53.555Z,9.75
2018-11-27T02:57:54.030Z,9.78
2018-11-27T02:58:54.492Z,9.72
2018-11-27T02:59:54.957Z,9.70
2018-11-27T03:00:55.423Z,9.72
2018-11-27T03:01:55.894Z,9.71
2018-11-27T03:02:56.357Z,9.69
2018-11-27T03:03:56.826Z,9.70
2018-11-27T03:04:57.292Z,9.70
2018-11-27T03:05:57.760Z,9.69
2018-11-27T03:06:58.223Z,9.70
2018-11-27T03:07:58.699Z,9.69
2018-11-27T03:08:59.160Z,9.69
2018-11-27T03:09:59.628Z,9.67
2018-11-27T03:11:00.093Z,9.67
2018-11-27T03:12:00.562Z,9.69
2018-11-27T03:13:01.032Z,9.70
2018-11-27T03:14:01.499Z,9.70
2018-11-27T03:15:01.961Z,9.68
2018-11-27T03:16:02.430Z,9.70
2018-11-27T03:17:02.895Z,9.68
2018-11-27T03:18:03.367Z,9.68
2018-11-27T03:19:03.829Z,9.67
2018-11-27T03:20:04.299Z,9.69
2018-11-27T03:21:04.764Z,9.68
2018-11-27T03:22:05.232Z,9.70
2018-11-27T03:23:05.699Z,9.69
2018-11-27T03:24:06.168Z,9.71
2018-11-27T03:25:06.632Z,9.70
2018-11-27T03:26:07.100Z,9.71
2018-11-27T03:27:07.566Z,9.67
2018-11-27T03:28:08.032Z,9.69
2018-11-27T03:29:08.499Z,9.69
2018-11-27T03:30:08.970Z,9.66
2018-11-27T03:31:09.433Z,9.65
2018-11-27T03:32:09.917Z,9.69
2018-11-27T03:33:10.415Z,9.68
2018-11-27T03:34:10.834Z,9.62
2018-11-27T03:35:11.302Z,9.64
2018-11-27T03:36:11.766Z,9.63
2018-11-27T03:37:12.236Z,9.67
2018-11-27T03:38:12.705Z,9.66
2018-11-27T03:39:13.169Z,9.63
2018-11-27T03:40:13.641Z,9.66
2018-11-27T03:41:14.106Z,9.64
2018-11-27T03:42:14.570Z,9.62
2018-11-27T03:43:15.034Z,9.62
2018-11-27T03:44:15.504Z,9.64
2018-11-27T03:45:15.971Z,9.62
2018-11-27T03:46:16.438Z,9.61
2018-11-27T03:47:16.904Z,9.62
2018-11-27T03:48:17.372Z,9.62
2018-11-27T03:49:17.838Z,9.63
2018-11-27T03:50:18.308Z,9.62
2018-11-27T03:51:18.772Z,9.61
2018-11-27T03:52:19.241Z,9.64
2018-11-27T03:53:19.706Z,9.64
2018-11-27T03:54:20.176Z,9.62
2018-11-27T03:55:20.641Z,9.62
2018-11-27T03:56:21.106Z,9.58
2018-11-27T03:57:21.575Z,9.58
2018-11-27T03:58:22.041Z,9.58
2018-11-27T03:59:22.509Z,9.58
2018-11-27T04:00:22.974Z,9.60
2018-11-27T04:01:23.442Z,9.56
2018-11-27T04:02:23.908Z,9.58
2018-11-27T04:03:24.375Z,9.57
2018-11-27T04:04:24.844Z,9.56
2018-11-27T04:05:25.312Z,9.55
2018-11-27T04:06:25.776Z,9.54
2018-11-27T04:07:26.243Z,9.55
2018-11-27T04:08:26.711Z,9.51
2018-11-27T04:09:27.178Z,9.52
2018-11-27T04:10:27.650Z,9.53
2018-11-27T04:11:28.111Z,9.51
2018-11-27T04:12:28.578Z,9.51
2018-11-27T04:13:29.043Z,9.51
2018-11-27T04:14:29.514Z,9.49
2018-11-27T04:15:29.975Z,9.49
2018-11-27T04:16:30.446Z,9.48
2018-11-27T04:17:30.911Z,9.48
2018-11-27T04:18:31.381Z,9.50
2018-11-27T04:19:31.845Z,9.51
2018-11-27T04:20:32.458Z,9.45
2018-11-27T04:21:32.779Z,9.48
2018-11-27T04:22:33.255Z,9.44
2018-11-27T04:23:33.710Z,9.46
2018-11-27T04:24:34.177Z,9.44
2018-11-27T04:25:34.646Z,9.47
2018-11-27T04:26:35.111Z,9.46
2018-11-27T04:27:35.586Z,9.45
2018-11-27T04:28:36.048Z,9.47
2018-11-27T04:29:36.513Z,9.43
2018-11-27T04:30:36.980Z,9.47
2018-11-27T04:31:37.486Z,9.44
2018-11-27T04:32:37.911Z,9.44
2018-11-27T04:33:38.378Z,9.47
2018-11-27T04:34:38.847Z,9.46
2018-11-27T04:35:39.319Z,9.46
2018-11-27T04:36:39.778Z,9.47
2018-11-27T04:37:40.247Z,9.45
2018-11-27T04:38:40.712Z,9.41
2018-11-27T04:39:41.180Z,9.42
2018-11-27T04:40:41.645Z,9.40
2018-11-27T04:41:42.112Z,9.39
2018-11-27T04:42:42.581Z,9.35
2018-11-27T04:43:43.046Z,9.36
2018-11-27T04:44:43.510Z,9.37
2018-11-27T04:45:43.980Z,9.36
2018-11-27T04:46:44.446Z,9.34
2018-11-27T04:47:44.910Z,9.36
2018-11-27T04:48:45.378Z,9.34
2018-11-27T04:49:45.844Z,9.32
2018-11-27T04:50:46.310Z,9.34
2018-11-27T04:51:46.777Z,9.33
2018-11-27T04:52:47.245Z,9.34
2018-11-27T04:53:47.725Z,9.34
2018-11-27T04:54:48.181Z,9.38
2018-11-27T04:55:48.644Z,9.38
2018-11-27T04:56:49.109Z,9.37
2018-11-27T04:57:49.582Z,9.39
2018-11-27T04:58:50.045Z,9.41
2018-11-27T04:59:50.512Z,9.43
2018-11-27T05:00:50.976Z,9.43
2018-11-27T05:01:51.444Z,9.44
2018-11-27T05:02:51.909Z,9.45
2018-11-27T05:03:52.375Z,9.44
2018-11-27T05:04:52.846Z,9.42
2018-11-27T05:05:53.308Z,9.44
2018-11-27T05:06:53.775Z,9.40
2018-11-27T05:07:54.250Z,9.37
2018-11-27T05:08:54.708Z,9.43
2018-11-27T05:09:55.175Z,9.41
2018-11-27T05:10:55.640Z,9.35
2018-11-27T05:11:56.106Z,9.34
2018-11-27T05:12:56.575Z,9.35
2018-11-27T05:13:57.039Z,9.33
2018-11-27T05:14:57.508Z,9.33
2018-11-27T05:15:57.973Z,9.31
2018-11-27T05:16:58.439Z,9.28
2018-11-27T05:17:58.905Z,9.24
2018-11-27T05:18:59.381Z,9.26
2018-11-27T05:19:59.839Z,9.25
2018-11-27T05:21:00.313Z,9.22
2018-11-27T05:22:00.771Z,9.23
2018-11-27T05:23:01.242Z,9.21
2018-11-27T05:24:01.706Z,9.18
2018-11-27T05:25:02.170Z,9.20
2018-11-27T05:26:02.635Z,9.19
2018-11-27T05:27:03.101Z,9.18
2018-11-27T05:28:03.569Z,9.21
2018-11-27T05:29:04.034Z,9.21
2018-11-27T05:30:04.502Z,9.21
2018-11-27T05:31:04.968Z,9.22
2018-11-27T05:32:05.434Z,9.22
2018-11-27T05:33:05.901Z,9.20
2018-11-27T05:34:06.369Z,9.19
2018-11-27T05:35:06.833Z,9.20
2018-11-27T05:36:07.301Z,9.18
2018-11-27T05:37:07.766Z,9.17
2018-11-27T05:38:08.235Z,9.18
2018-11-27T05:39:08.701Z,9.17
2018-11-27T05:40:09.165Z,9.13
2018-11-27T05:41:09.630Z,9.14
2018-11-27T05:42:10.101Z,9.16
2018-11-27T05:43:10.566Z,9.14
2018-11-27T05:44:11.031Z,9.14
2018-11-27T05:45:11.496Z,9.15
2018-11-27T05:46:11.964Z,9.16
2018-11-27T05:47:12.431Z,9.13
2018-11-27T05:48:12.899Z,9.13
2018-11-27T05:49:13.361Z,9.16
2018-11-27T05:50:13.829Z,9.15
2018-11-27T05:51:14.294Z,9.13
2018-11-27T05:52:14.761Z,9.11
2018-11-27T05:53:15.226Z,9.13
2018-11-27T05:54:15.692Z,9.11
2018-11-27T05:55:16.159Z,9.11
2018-11-27T05:56:16.624Z,9.11
2018-11-27T05:57:17.094Z,9.09
2018-11-27T05:58:17.559Z,9.07
2018-11-27T05:59:18.025Z,9.07
2018-11-27T06:00:18.488Z,9.07
2018-11-27T06:01:18.956Z,9.05
2018-11-27T06:02:19.422Z,9.06
2018-11-27T06:03:19.887Z,9.02
2018-11-27T06:04:20.354Z,9.02
2018-11-27T06:05:20.826Z,9.02
2018-11-27T06:06:21.287Z,9.02
2018-11-27T06:07:21.754Z,9.00
2018-11-27T06:08:22.223Z,9.01
2018-11-27T06:09:22.684Z,9.01
2018-11-27T06:10:23.153Z,8.97
2018-11-27T06:11:23.618Z,9.01
2018-11-27T06:12:24.083Z,8.97
2018-11-27T06:13:24.551Z,9.00
2018-11-27T06:14:25.017Z,8.97
2018-11-27T06:15:25.485Z,8.98
2018-11-27T06:16:25.949Z,8.98
2018-11-27T06:17:26.416Z,8.97
2018-11-27T06:18:26.882Z,8.97
2018-11-27T06:19:27.350Z,8.93
2018-11-27T06:20:27.813Z,8.94
2018-11-27T06:21:28.278Z,8.92
2018-11-27T06:22:28.750Z,8.89
2018-11-27T06:23:29.210Z,8.92
2018-11-27T06:24:29.680Z,8.90
2018-11-27T06:25:30.144Z,8.88
2018-11-27T06:26:30.613Z,8.91
2018-11-27T06:27:31.077Z,8.90
2018-11-27T06:28:31.542Z,8.90
2018-11-27T06:29:32.008Z,8.93
2018-11-27T06:30:32.473Z,8.93
2018-11-27T06:31:32.943Z,8.89
2018-11-27T06:32:33.405Z,8.89
2018-11-27T06:33:33.872Z,8.90
2018-11-27T06:34:34.338Z,8.87
2018-11-27T06:35:34.808Z,8.89
2018-11-27T06:36:35.270Z,8.88
2018-11-27T06:37:35.737Z,8.88
2018-11-27T06:38:36.203Z,8.89
2018-11-27T06:39:36.668Z,8.88
2018-11-27T06:40:37.132Z,8.88
2018-11-27T06:41:37.600Z,8.88
2018-11-27T06:42:38.065Z,8.84
2018-11-27T06:43:38.535Z,8.88
2018-11-27T06:44:39.002Z,8.88
2018-11-27T06:45:39.462Z,8.85
2018-11-27T06:46:39.929Z,8.85
2018-11-27T06:47:40.396Z,8.83
2018-11-27T06:48:40.861Z,8.88
2018-11-27T06:49:41.326Z,8.88
2018-11-27T06:50:41.795Z,8.83
2018-11-27T06:51:42.258Z,8.81
2018-11-27T06:52:42.727Z,8.86
2018-11-27T06:53:43.190Z,8.87
2018-11-27T06:54:43.656Z,8.88
2018-11-27T06:55:44.129Z,8.90
2018-11-27T06:56:44.588Z,8.87
2018-11-27T06:57:45.104Z,8.87
2018-11-27T06:58:45.524Z,8.89
2018-11-27T06:59:45.986Z,8.89
2018-11-27T07:00:46.452Z,8.85
2018-11-27T07:01:46.918Z,8.87
2018-11-27T07:02:47.389Z,8.89
2018-11-27T07:03:47.849Z,8.89
2018-11-27T07:04:48.317Z,8.89
2018-11-27T07:05:48.782Z,8.88
2018-11-27T07:06:49.254Z,8.89
2018-11-27T07:07:49.714Z,8.90
2018-11-27T07:08:50.181Z,8.91
2018-11-27T07:09:50.647Z,8.90
2018-11-27T07:10:51.112Z,8.85
2018-11-27T07:11:51.578Z,8.85
2018-11-27T07:12:52.043Z,8.86
2018-11-27T07:13:52.508Z,8.89
2018-11-27T07:14:52.975Z,8.86
2018-11-27T07:15:53.441Z,8.82
2018-11-27T07:16:53.906Z,8.85
2018-11-27T07:17:54.373Z,8.83
2018-11-27T07:18:54.842Z,8.83
2018-11-27T07:19:55.307Z,8.84
2018-11-27T07:20:55.774Z,8.84
2018-11-27T07:21:56.239Z,8.82
2018-11-27T07:22:56.752Z,8.83
2018-11-27T07:23:57.170Z,8.84
2018-11-27T07:24:57.635Z,8.84
2018-11-27T07:25:58.101Z,8.84
2018-11-27T07:26:58.568Z,8.86
2018-11-27T07:27:59.034Z,8.89
2018-11-27T07:28:59.506Z,8.85
2018-11-27T07:29:59.965Z,8.88
2018-11-27T07:31:00.429Z,8.87
2018-11-27T07:32:00.903Z,8.89
2018-11-27T07:33:01.361Z,8.92
2018-11-27T07:34:01.827Z,8.89
2018-11-27T07:35:02.293Z,8.93
2018-11-27T07:36:02.759Z,8.94
2018-11-27T07:37:03.228Z,8.88
2018-11-27T07:38:03.690Z,8.91
2018-11-27T07:39:04.159Z,8.90
2018-11-27T07:40:04.624Z,8.89
2018-11-27T07:41:05.095Z,8.89
2018-11-27T07:42:05.556Z,8.89
2018-11-27T07:43:06.022Z,8.88
2018-11-27T07:44:06.487Z,8.85
2018-11-27T07:45:06.952Z,8.88
2018-11-27T07:46:07.422Z,8.90
2018-11-27T07:47:07.886Z,8.89
2018-11-27T07:48:08.353Z,8.85
2018-11-27T07:49:08.817Z,8.88
2018-11-27T07:50:09.284Z,8.89
2018-11-27T07:51:09.748Z,8.86
2018-11-27T07:52:10.215Z,8.88
2018-11-27T07:53:10.684Z,8.90
2018-11-27T07:54:11.148Z,8.91
2018-11-27T07:55:11.613Z,8.89
2018-11-27T07:56:12.080Z,8.90
2018-11-27T07:57:12.544Z,8.88
2018-11-27T07:58:13.010Z,8.90
2018-11-27T07:59:13.477Z,8.93
2018-11-27T08:00:13.948Z,8.89
2018-11-27T08:01:14.408Z,8.90
2018-11-27T08:02:14.874Z,8.91
2018-11-27T08:03:15.339Z,8.90
2018-11-27T08:04:15.806Z,8.91
2018-11-27T08:05:16.272Z,8.89
2018-11-27T08:06:16.739Z,8.90
2018-11-27T08:07:17.203Z,8.92
2018-11-27T08:08:17.670Z,8.89
2018-11-27T08:09:18.135Z,8.90
2018-11-27T08:10:18.601Z,8.89
2018-11-27T08:11:19.065Z,8.85
2018-11-27T08:12:19.533Z,8.88
2018-11-27T08:13:19.997Z,8.88
2018-11-27T08:14:20.465Z,8.86
2018-11-27T08:15:20.932Z,8.87
2018-11-27T08:16:21.397Z,8.91
2018-11-27T08:17:21.860Z,8.91
2018-11-27T08:18:22.327Z,8.89
2018-11-27T08:19:22.793Z,8.90
2018-11-27T08:20:23.259Z,8.91
2018-11-27T08:21:23.724Z,8.93
2018-11-27T08:22:24.191Z,8.96
2018-11-27T08:23:24.657Z,8.98
2018-11-27T08:24:25.126Z,8.98
2018-11-27T08:25:25.589Z,9.00
2018-11-27T08:26:26.053Z,9.02
2018-11-27T08:27:26.523Z,9.05
2018-11-27T08:28:26.987Z,9.09
2018-11-27T08:29:27.453Z,9.06
2018-11-27T08:30:27.921Z,9.03
2018-11-27T08:31:28.385Z,9.09
2018-11-27T08:32:28.849Z,9.05
2018-11-27T08:33:29.317Z,9.06
2018-11-27T08:34:29.781Z,9.05
2018-11-27T08:35:30.248Z,9.05
2018-11-27T08:36:30.713Z,9.04
2018-11-27T08:37:31.181Z,9.07
2018-11-27T08:38:31.643Z,9.01
2018-11-27T08:39:32.113Z,9.04
2018-11-27T08:40:32.578Z,9.04
2018-11-27T08:41:40.313Z,9.03
2018-11-27T08:42:33.508Z,9.02
2018-11-27T08:43:33.976Z,9.02
2018-11-27T08:44:34.447Z,9.03
2018-11-27T08:45:34.906Z,9.04
2018-11-27T08:46:35.374Z,9.06
2018-11-27T08:47:35.838Z,9.02
2018-11-27T08:48:36.306Z,9.01
2018-11-27T08:49:36.771Z,9.00
2018-11-27T08:50:37.238Z,9.00
2018-11-27T08:51:37.704Z,8.98
2018-11-27T08:52:38.168Z,8.99
2018-11-27T08:53:38.633Z,9.01
2018-11-27T08:54:39.101Z,8.99
2018-11-27T08:55:39.568Z,9.04
2018-11-27T08:56:40.033Z,9.04
2018-11-27T08:57:40.499Z,9.03
2018-11-27T08:58:40.964Z,9.06
2018-11-27T08:59:41.432Z,9.07
2018-11-27T09:00:41.906Z,9.07
2018-11-27T09:01:42.363Z,9.07
2018-11-27T09:02:42.828Z,9.06
2018-11-27T09:03:46.471Z,9.07
2018-11-27T09:04:43.760Z,9.09
2018-11-27T09:05:44.229Z,9.12
2018-11-27T09:06:44.694Z,9.09
2018-11-27T09:07:45.166Z,9.10
2018-11-27T09:08:45.628Z,9.11
2018-11-27T09:09:46.094Z,9.10
2018-11-27T09:10:46.560Z,9.14
2018-11-27T09:11:47.025Z,9.10
2018-11-27T09:12:47.490Z,9.13
2018-11-27T09:13:47.956Z,9.12
2018-11-27T09:14:48.421Z,9.16
2018-11-27T09:15:48.887Z,9.18
2018-11-27T09:16:49.354Z,9.18
2018-11-27T09:17:49.820Z,9.18
2018-11-27T09:18:50.287Z,9.17
2018-11-27T09:19:50.753Z,9.18
2018-11-27T09:20:51.220Z,9.19
2018-11-27T09:21:51.685Z,9.19
2018-11-27T09:22:52.153Z,9.21
2018-11-27T09:23:52.618Z,9.20
2018-11-27T09:24:53.083Z,9.19
2018-11-27T09:25:53.552Z,9.17
2018-11-27T09:26:54.016Z,9.22
2018-11-27T09:27:54.498Z,9.19
2018-11-27T09:28:54.947Z,9.22
2018-11-27T09:29:55.427Z,9.19
2018-11-27T09:30:55.884Z,9.20
2018-11-27T09:31:56.345Z,9.18
2018-11-27T09:32:56.816Z,9.20
2018-11-27T09:33:57.278Z,9.22
2018-11-27T09:34:57.743Z,9.24
2018-11-27T09:35:58.210Z,9.24
2018-11-27T09:36:58.681Z,9.22
2018-11-27T09:37:59.143Z,9.23
2018-11-27T09:38:59.609Z,9.21
2018-11-27T09:40:00.075Z,9.22
2018-11-27T09:41:00.546Z,9.25
2018-11-27T09:42:01.006Z,9.23
2018-11-27T09:43:01.479Z,9.23
2018-11-27T09:44:01.940Z,9.28
2018-11-27T09:45:02.411Z,9.28
2018-11-27T09:46:02.871Z,9.28
2018-11-27T09:47:03.345Z,9.28
2018-11-27T09:49:04.277Z,9.32
2018-11-27T09:50:04.735Z,9.33
2018-11-27T09:51:05.203Z,9.39
2018-11-27T09:52:05.670Z,9.39
2018-11-27T09:53:06.137Z,9.45
2018-11-27T09:54:06.601Z,9.45
2018-11-27T09:55:07.069Z,9.48
2018-11-27T09:56:07.533Z,9.54
2018-11-27T09:57:08.001Z,9.53
2018-11-27T09:58:08.466Z,9.55
2018-11-27T09:59:08.934Z,9.58
2018-11-27T10:00:09.398Z,9.60
2018-11-27T10:01:09.866Z,9.62
2018-11-27T10:02:10.333Z,9.63
2018-11-27T10:03:10.799Z,9.68
2018-11-27T10:04:11.265Z,9.69
2018-11-27T10:05:11.730Z,9.71
2018-11-27T10:06:12.197Z,9.74
2018-11-27T10:07:12.664Z,9.70
2018-11-27T10:08:13.129Z,9.69
2018-11-27T10:09:13.597Z,9.74
2018-11-27T10:10:14.063Z,9.75
2018-11-27T10:11:15.628Z,9.75
2018-11-27T10:12:14.997Z,9.79
2018-11-27T10:13:15.462Z,9.77
2018-11-27T10:14:15.930Z,9.79
2018-11-27T10:15:16.395Z,9.79
2018-11-27T10:16:16.862Z,9.79
2018-11-27T10:17:17.328Z,9.82
2018-11-27T10:18:17.794Z,9.82
2018-11-27T10:19:18.261Z,9.87
2018-11-27T10:20:18.729Z,9.86
2018-11-27T10:21:19.194Z,9.88
2018-11-27T10:22:19.661Z,9.92
2018-11-27T10:23:20.129Z,9.89
2018-11-27T10:24:20.593Z,9.89
2018-11-27T10:25:21.060Z,9.91
2018-11-27T10:26:21.530Z,9.94
2018-11-27T10:27:21.993Z,9.96
2018-11-27T10:28:22.462Z,9.93
2018-11-27T10:29:22.927Z,9.93
2018-11-27T10:30:23.392Z,9.96
2018-11-27T10:31:23.859Z,9.95
2018-11-27T10:32:24.327Z,9.94
2018-11-27T10:33:24.795Z,9.92
2018-11-27T10:34:25.260Z,9.95
2018-11-27T10:35:25.738Z,9.95
2018-11-27T10:36:26.194Z,9.95
2018-11-27T10:37:26.664Z,9.93
2018-11-27T10:38:27.134Z,9.94
2018-11-27T10:39:27.593Z,9.93
2018-11-27T10:40:28.062Z,9.94
2018-11-27T10:41:28.527Z,9.92
2018-11-27T10:42:30.195Z,9.96
2018-11-27T10:43:29.466Z,9.93
2018-11-27T10:44:29.930Z,9.96
2018-11-27T10:45:30.395Z,9.98
2018-11-27T10:46:30.860Z,9.98
2018-11-27T10:47:31.330Z,9.96
2018-11-27T10:48:31.795Z,9.95
2018-11-27T10:49:32.263Z,9.93
2018-11-27T10:50:32.729Z,9.98
2018-11-27T10:51:33.197Z,9.97
2018-11-27T10:52:33.664Z,9.99
2018-11-27T10:53:34.129Z,9.98
2018-11-27T10:54:34.596Z,10.02
2018-11-27T10:55:35.064Z,10.03
2018-11-27T10:56:35.531Z,10.00
2018-11-27T10:57:35.997Z,10.03
2018-11-27T10:58:36.463Z,10.06
2018-11-27T10:59:36.931Z,10.04
2018-11-27T11:00:37.397Z,10.05
2018-11-27T11:01:37.865Z,10.07
2018-11-27T11:02:38.334Z,10.08
2018-11-27T11:03:38.801Z,10.12
2018-11-27T11:04:39.266Z,10.15
2018-11-27T11:05:39.733Z,10.18
2018-11-27T11:06:40.199Z,10.16
2018-11-27T11:07:40.666Z,10.20
2018-11-27T11:08:41.220Z,10.23
2018-11-27T11:09:41.602Z,10.24
2018-11-27T11:10:42.071Z,10.23
2018-11-27T11:11:42.536Z,10.27
2018-11-27T11:12:43.001Z,10.28
2018-11-27T11:13:43.469Z,10.32
2018-11-27T11:14:43.936Z,10.30
2018-11-27T11:15:44.401Z,10.33
2018-11-27T11:16:44.871Z,10.36
2018-11-27T11:17:45.342Z,10.36
2018-11-27T11:18:45.803Z,10.36
2018-11-27T11:19:46.271Z,10.37
2018-11-27T11:20:46.738Z,10.37
2018-11-27T11:21:47.205Z,10.37
2018-11-27T11:22:47.671Z,10.36
2018-11-27T11:23:48.139Z,10.36
2018-11-27T11:24:48.607Z,10.34
2018-11-27T11:25:49.073Z,10.34
2018-11-27T11:26:49.540Z,10.35
2018-11-27T11:27:50.009Z,10.35
2018-11-27T11:28:50.477Z,10.38
2018-11-27T11:29:50.944Z,10.34
2018-11-27T11:30:51.411Z,10.37
2018-11-27T11:31:51.878Z,10.40
2018-11-27T11:32:52.346Z,10.42
2018-11-27T11:33:52.813Z,10.41
2018-11-27T11:34:53.278Z,10.44
2018-11-27T11:35:53.745Z,10.43
2018-11-27T11:36:54.212Z,10.47
2018-11-27T11:37:54.680Z,10.45
2018-11-27T11:38:55.148Z,10.47
2018-11-27T11:39:55.614Z,10.49
2018-11-27T11:40:56.084Z,10.50
2018-11-27T11:41:56.550Z,10.50
2018-11-27T11:42:57.018Z,10.49
2018-11-27T11:43:57.485Z,10.56
2018-11-27T11:44:57.952Z,10.55
2018-11-27T11:45:58.421Z,10.56
2018-11-27T11:46:58.886Z,10.58
2018-11-27T11:47:59.353Z,10.61
2018-11-27T11:49:01.882Z,10.60
2018-11-27T11:50:00.289Z,10.63
2018-11-27T11:51:00.754Z,10.66
2018-11-27T11:52:01.224Z,10.65
2018-11-27T11:53:01.694Z,10.66
2018-11-27T11:54:02.159Z,10.67
2018-11-27T11:55:02.626Z,10.68
2018-11-27T11:56:03.091Z,10.69
2018-11-27T11:57:03.561Z,10.69
2018-11-27T11:58:04.027Z,10.69
2018-11-27T11:59:04.496Z,10.69
2018-11-27T12:00:04.963Z,10.72
2018-11-27T12:01:05.433Z,10.70
2018-11-27T12:02:05.898Z,10.75
2018-11-27T12:03:06.364Z,10.75
2018-11-27T12:04:06.832Z,10.76
2018-11-27T12:05:07.314Z,10.76
2018-11-27T12:06:07.768Z,10.77
2018-11-27T12:07:08.234Z,10.77
2018-11-27T12:08:08.702Z,10.79
2018-11-27T12:09:09.171Z,10.79
2018-11-27T12:10:09.637Z,10.82
2018-11-27T12:11:10.105Z,10.82
2018-11-27T12:12:10.572Z,10.81
2018-11-27T12:13:11.040Z,10.84
2018-11-27T12:14:11.511Z,10.81
2018-11-27T12:15:11.975Z,10.85
2018-11-27T12:16:12.441Z,10.86
2018-11-27T12:17:12.910Z,10.86
2018-11-27T12:18:13.378Z,10.88
2018-11-27T12:19:13.849Z,10.85
2018-11-27T12:20:14.313Z,10.82
2018-11-27T12:21:14.781Z,10.86
2018-11-27T12:22:15.249Z,10.85
2018-11-27T12:23:15.715Z,10.85
2018-11-27T12:24:16.184Z,10.84
2018-11-27T12:25:16.654Z,10.86
2018-11-27T12:26:17.120Z,10.83
2018-11-27T12:27:17.586Z,10.84
2018-11-27T12:28:18.054Z,10.88
2018-11-27T12:29:18.523Z,10.86
2018-11-27T12:30:18.994Z,10.86
2018-11-27T12:31:19.455Z,10.84
2018-11-27T12:32:19.924Z,10.82
2018-11-27T12:33:20.392Z,10.81
2018-11-27T12:34:20.862Z,10.83
2018-11-27T12:35:21.329Z,10.81
2018-11-27T12:36:21.795Z,10.80
2018-11-27T12:37:22.265Z,10.80
2018-11-27T12:38:22.731Z,10.80
2018-11-27T12:39:23.197Z,10.80
2018-11-27T12:40:23.669Z,10.79
2018-11-27T12:41:24.135Z,10.78
2018-11-27T12:42:24.604Z,10.79
2018-11-27T12:43:25.070Z,10.76
2018-11-27T12:44:25.539Z,10.75
2018-11-27T12:45:26.006Z,10.75
2018-11-27T12:46:26.474Z,10.76
2018-11-27T12:47:26.941Z,10.78
2018-11-27T12:48:27.410Z,10.75
2018-11-27T12:49:27.877Z,10.77
2018-11-27T12:50:28.347Z,10.76
2018-11-27T12:51:28.812Z,10.78
2018-11-27T12:52:29.281Z,10.79
2018-11-27T12:53:29.747Z,10.81
2018-11-27T12:54:30.218Z,10.78
2018-11-27T12:55:30.682Z,10.79
2018-11-27T12:56:31.151Z,10.78
2018-11-27T12:57:31.618Z,10.78
2018-11-27T12:58:32.087Z,10.81
2018-11-27T12:59:32.557Z,10.84
2018-11-27T13:00:33.022Z,10.82
2018-11-27T13:01:33.488Z,10.84
2018-11-27T13:02:33.958Z,10.85
2018-11-27T13:03:34.426Z,10.85
2018-11-27T13:04:34.891Z,10.88
2018-11-27T13:05:35.360Z,10.89
2018-11-27T13:06:35.828Z,10.86
2018-11-27T13:07:36.296Z,10.87
2018-11-27T13:08:36.764Z,10.89
2018-11-27T13:09:37.232Z,10.88
2018-11-27T13:10:37.699Z,10.92
2018-11-27T13:11:38.169Z,10.89
2018-11-27T13:12:38.637Z,10.93
2018-11-27T13:13:39.110Z,10.95
2018-11-27T13:14:39.572Z,10.98
2018-11-27T13:15:40.091Z,11.01
2018-11-27T13:16:40.506Z,11.02